LEZG/ZAZ METAR and TAF weather

Enter ICAO airport designator
Station Type Date Time Source
LEZG METAR 2019/08/22 10:00 UTC NOAA

LEZG 221000Z 31013KT CAVOK 23/12 Q1022


Station Type Date Time Source
LEZG Decoded METAR 2019/08/22 10:00 UTC NOAA

Station name not available
Aug 22, 2019 - 06:00 AM EDT / 2019.08.22 1000 UTC
Wind: from the NW (310 degrees) at 15 MPH (13 KT):0
Visibility: greater than 7 mile(s):0
Temperature: 73 F (23 C)
Dew Point: 53 F (12 C)
Relative Humidity: 49%
Pressure (altimeter): 30.18 in. Hg (1022 hPa)
ob: LEZG 221000Z 31013KT CAVOK 23/12 Q1022
cycle: 10

Station Type Date Time Source
LEZG TAF 2019/08/22 06:27 UTC NOAA

TAF LEZG 220500Z 2206/2306 27010KT 9999 FEW040 TX30/2214Z TN16/2206Z

Example: see airport list